Time;durP1;ratioP1;P1;durP2;ratioP2;P2;SDS_P1;SDS_P2;PMS_P1;PMS_P2;Temp;Humidity;BMP_temperature;BMP_pressure;BME280_temperature;BME280_humidity;BME280_pressure;Samples;Min_cycle;Max_cycle;Signal;HPM_P1;HPM_P2
2021/06/07 04:41:12;;;;;;;6.70;4.17;;;;;;;15.35;88.81;99770.87;1813173;77;21114;-39
2021/06/07 04:43:43;;;;;;;9.68;4.67;;;;;;;15.39;88.50;99777.79;1793910;77;21596;-40
2021/06/07 04:46:10;;;;;;;11.35;5.25;;;;;;;15.42;88.04;99776.83;1807740;77;21063;-38
2021/06/07 04:51:03;;;;;;;7.42;4.03;;;;;;;15.52;87.38;99778.76;1819187;77;21133;-39
2021/06/07 04:53:31;;;;;;;8.75;4.37;;;;;;;15.59;86.76;99777.67;1790640;78;21581;-37
2021/06/07 04:56:08;;;;;;;8.33;4.10;;;;;;;15.65;86.51;99784.12;1742309;80;21392;-40
2021/06/07 04:58:36;;;;;;;;;;;;;;;15.72;86.36;99792.28;1765749;80;21071;-38
2021/06/07 05:01:08;;;;;;;8.83;4.45;;;;;;;15.81;85.72;99785.41;1824240;77;20190;-40
2021/06/07 05:03:39;;;;;;;9.40;4.08;;;;;;;15.91;85.49;99788.19;1790740;77;21022;-39
2021/06/07 05:06:07;;;;;;;5.35;3.77;;;;;;;16.04;85.02;99789.14;1818077;78;21154;-38
2021/06/07 05:11:01;;;;;;;13.75;4.37;;;;;;;16.26;84.06;99787.57;1814137;77;21189;-39
2021/06/07 05:13:29;;;;;;;13.53;4.15;;;;;;;16.36;83.70;99793.44;1768427;78;21717;-39
2021/06/07 05:15:57;;;;;;;7.80;3.67;;;;;;;16.45;83.41;99791.80;1810834;77;21134;-38
2021/06/07 05:18:24;;;;;;;6.62;3.83;;;;;;;16.53;82.38;99792.44;1774469;78;21731;-38
2021/06/07 05:20:53;;;;;;;8.85;4.25;;;;;;;16.55;81.84;99796.34;1782506;79;21651;-38
2021/06/07 05:23:23;;;;;;;8.50;3.87;;;;;;;16.58;81.71;99794.45;1760754;78;21212;-37
2021/06/07 05:25:53;;;;;;;5.33;3.47;;;;;;;16.62;81.67;99790.80;1794639;76;21089;-38
2021/06/07 05:28:22;;;;;;;16.65;7.03;;;;;;;16.67;81.44;99788.88;1617032;85;21204;-38
2021/06/07 05:30:50;;;;;;;4.00;2.65;;;;;;;16.77;81.29;99787.30;1687295;81;21542;-39
2021/06/07 05:33:18;;;;;;;6.20;2.40;;;;;;;16.85;77.15;99785.25;1702877;81;21182;-39
2021/06/07 05:35:47;;;;;;;2.75;2.30;;;;;;;16.89;75.91;99784.25;1696112;81;21553;-39
2021/06/07 05:38:40;;;;;;;3.75;2.20;;;;;;;16.90;75.02;99785.50;1688395;81;21211;-41
2021/06/07 05:44:19;;;;;;;5.20;1.90;;;;;;;16.94;74.21;99784.95;1797527;76;21181;-39
2021/06/07 05:46:51;;;;;;;7.90;2.70;;;;;;;16.96;74.02;99781.80;1790765;77;21153;-40
2021/06/07 05:54:43;;;;;;;6.37;2.47;;;;;;;17.11;73.70;99780.42;1788230;77;21024;-38
2021/06/07 05:59:45;;;;;;;3.87;2.02;;;;;;;17.16;72.46;99781.98;1780464;77;21025;-37
2021/06/07 06:02:31;;;;;;;8.13;2.52;;;;;;;17.19;72.68;99782.32;1749668;78;21138;-38
2021/06/07 06:05:08;;;;;;;4.22;1.77;;;;;;;17.22;73.03;99787.05;1750470;78;21078;-39
2021/06/07 06:07:59;;;;;;;7.10;1.82;;;;;;;17.32;72.87;99773.48;1729661;79;21234;-39
2021/06/07 06:10:57;;;;;;;3.65;2.27;;;;;;;17.43;72.00;99779.25;1716983;78;21089;-39
2021/06/07 06:20:13;;;;;;;2.83;2.22;;;;;;;17.67;70.03;99779.67;1765914;75;21255;-38
2021/06/07 06:27:04;;;;;;;6.92;2.67;;;;;;;17.79;70.71;99771.30;1833052;77;21141;-39
2021/06/07 06:32:23;;;;;;;3.85;2.17;;;;;;;18.07;69.98;99770.26;1763724;78;21605;-38
2021/06/07 06:38:18;;;;;;;5.58;2.00;;;;;;;18.30;69.45;99772.86;1763256;77;21113;-40
2021/06/07 06:43:43;;;;;;;5.17;2.08;;;;;;;18.40;68.41;99773.83;1750541;79;21289;-40
2021/06/07 06:46:23;;;;;;;6.42;2.45;;;;;;;18.44;68.81;99772.76;1754682;79;22624;-40
2021/06/07 06:55:32;;;;;;;;;;;;;;;18.66;66.82;99773.61;1737420;79;21719;-39
2021/06/07 06:58:18;;;;;;;2.37;1.67;;;;;;;18.89;66.84;99775.33;1718407;80;20679;-38
2021/06/07 07:01:08;;;;;;;5.65;1.85;;;;;;;18.98;66.11;99775.42;1729993;79;21665;-40
2021/06/07 07:07:50;;;;;;;2.83;1.77;;;;;;;19.13;64.57;99782.27;1662486;82;21843;-39
2021/06/07 07:13:31;;;;;;;2.27;1.75;;;;;;;19.53;64.41;99778.30;1723654;79;21241;-37
2021/06/07 07:16:08;;;;;;;4.90;2.02;;;;;;;19.71;63.02;99773.51;1722410;79;21871;-38
2021/06/07 07:18:42;;;;;;;4.03;1.80;;;;;;;19.85;62.26;99774.22;1666036;82;21159;-38
2021/06/07 07:21:36;;;;;;;6.28;2.00;;;;;;;19.99;61.80;99770.44;1681846;81;21164;-38
2021/06/07 07:24:48;;;;;;;5.75;1.82;;;;;;;20.13;61.20;99766.69;1679805;82;22006;-40
2021/06/07 07:27:59;;;;;;;3.02;1.80;;;;;;;20.17;61.12;99765.59;1716826;81;21181;-42
2021/06/07 07:30:35;;;;;;;3.72;1.85;;;;;;;20.17;60.94;99771.37;1709536;81;21214;-40
2021/06/07 07:33:18;;;;;;;2.75;1.90;;;;;;;20.19;61.07;99765.06;1701903;81;21145;-47
2021/06/07 07:39:04;;;;;;;4.45;2.05;;;;;;;20.46;59.05;99769.99;1710393;78;21118;-45
2021/06/07 07:41:52;;;;;;;3.52;1.70;;;;;;;20.70;58.95;99767.95;1688185;82;21111;-45
2021/06/07 07:44:56;;;;;;;11.05;1.95;;;;;;;20.93;57.46;99768.09;1793018;78;21189;-46
2021/06/07 07:47:50;;;;;;;3.55;1.47;;;;;;;20.93;56.79;99772.97;1743351;78;21628;-46
2021/06/07 07:50:24;;;;;;;2.50;1.77;;;;;;;20.86;56.50;99769.34;1686532;82;21600;-46
2021/06/07 07:52:56;;;;;;;5.55;1.50;;;;;;;20.75;56.06;99767.69;1743726;81;21203;-46
2021/06/07 07:55:51;;;;;;;2.33;1.47;;;;;;;20.64;55.59;99772.20;1673340;82;21135;-40
2021/06/07 08:40:53;;;;;;;5.45;1.60;;;;;;;20.90;54.72;99777.09;1740810;80;21218;-40
2021/06/07 08:47:27;;;;;;;3.37;1.62;;;;;;;20.99;53.72;99767.80;1765281;78;21185;-45
2021/06/07 09:07:31;;;;;;;3.00;1.37;;;;;;;21.04;50.26;99760.42;1757235;77;23009;-45
2021/06/07 09:13:51;;;;;;;5.92;1.57;;;;;;;21.26;54.55;99749.06;1725215;81;21137;-45
2021/06/07 09:16:20;;;;;;;2.00;1.80;;;;;;;21.53;54.26;99757.90;1705118;81;21645;-46
2021/06/07 09:21:29;;;;;;;2.55;1.50;;;;;;;21.73;51.97;99755.48;1748267;79;21746;-40
2021/06/07 09:28:22;;;;;;;2.92;1.40;;;;;;;21.79;50.66;99756.00;1809491;76;21083;-43
2021/06/07 10:07:29;;;;;;;1.57;1.35;;;;;;;22.18;49.80;99701.97;1789197;78;21082;-45
2021/06/07 10:10:14;;;;;;;3.25;1.32;;;;;;;22.07;50.06;99703.87;1785974;78;21133;-45
2021/06/07 10:12:43;;;;;;;1.87;1.40;;;;;;;21.96;51.80;99707.62;1783727;78;21117;-40
2021/06/07 10:18:11;;;;;;;5.42;1.40;;;;;;;21.85;50.57;99702.89;1796857;78;21621;-39
2021/06/07 10:20:49;;;;;;;1.20;1.10;;;;;;;22.01;51.45;99700.23;1820902;77;21062;-45
2021/06/07 10:23:27;;;;;;;1.25;0.88;;;;;;;22.14;50.82;99701.28;1762483;78;22077;-45
2021/06/07 10:26:02;;;;;;;1.37;1.07;;;;;;;22.24;48.27;99705.62;1772605;78;21121;-39
2021/06/07 10:28:39;;;;;;;5.10;0.90;;;;;;;22.31;47.45;99694.98;1734985;80;21101;-42
2021/06/07 10:31:17;;;;;;;1.50;1.27;;;;;;;22.43;45.93;99700.94;1747861;79;21109;-45
2021/06/07 10:34:01;;;;;;;1.40;1.10;;;;;;;22.57;46.41;99701.48;1785687;78;21113;-45
2021/06/07 10:36:27;;;;;;;2.05;1.50;;;;;;;22.78;46.24;99688.19;1771844;78;21188;-40
2021/06/07 10:39:18;;;;;;;2.80;1.22;;;;;;;23.14;47.27;99690.97;1818850;78;21073;-44
2021/06/07 10:42:01;;;;;;;1.30;1.20;;;;;;;23.45;45.27;99685.06;1810888;78;21094;-40
2021/06/07 10:44:41;;;;;;;2.42;1.20;;;;;;;23.69;44.87;99683.53;1811719;78;21581;-45
2021/06/07 10:47:11;;;;;;;1.62;1.20;;;;;;;23.74;43.69;99684.10;1799907;78;21089;-45
2021/06/07 10:49:47;;;;;;;3.45;1.10;;;;;;;23.63;44.24;99675.44;1785556;78;21011;-40
2021/06/07 10:52:20;;;;;;;2.42;1.40;;;;;;;23.65;45.76;99675.33;1770191;79;21058;-39
2021/06/07 10:54:56;;;;;;;3.37;1.10;;;;;;;23.63;44.98;99674.10;1797045;78;21041;-39
